Time;durP1;ratioP1;P1;durP2;ratioP2;P2;SDS_P1;SDS_P2;PMS_P1;PMS_P2;Temp;Humidity;BMP_temperature;BMP_pressure;BME280_temperature;BME280_humidity;BME280_pressure;Samples;Min_cycle;Max_cycle;Signal;HPM_P1;HPM_P2
2022/10/17 00:02:21;;;;;;;9.45;5.30;;;;;;;17.66;70.72;101597.47;6240018;22;20015;-71
2022/10/17 00:04:46;;;;;;;8.45;5.43;;;;;;;17.61;72.06;101596.63;6243132;22;20019;-72
2022/10/17 00:07:11;;;;;;;8.48;5.80;;;;;;;17.49;72.73;101600.16;6248040;22;20014;-72
2022/10/17 00:09:37;;;;;;;8.90;5.70;;;;;;;17.31;73.18;101595.81;6245112;22;20012;-72
2022/10/17 00:12:02;;;;;;;5.95;5.07;;;;;;;17.61;72.45;101607.16;6245636;22;20007;-72
2022/10/17 00:14:28;;;;;;;7.45;5.40;;;;;;;17.66;72.33;101601.00;6238447;22;20014;-73
2022/10/17 00:16:53;;;;;;;10.27;5.82;;;;;;;17.40;72.93;101601.03;6244864;22;20031;-71
2022/10/17 00:19:19;;;;;;;7.63;5.55;;;;;;;17.86;70.78;101597.38;6248015;22;20082;-72
2022/10/17 00:21:44;;;;;;;7.38;5.43;;;;;;;17.72;72.00;101598.31;6241747;22;20090;-70
2022/10/17 00:24:09;;;;;;;8.38;5.88;;;;;;;17.62;72.15;101582.56;6247515;22;20065;-71
2022/10/17 00:26:35;;;;;;;8.45;5.88;;;;;;;17.64;72.09;101580.78;6238561;22;20260;-72
2022/10/17 00:29:00;;;;;;;8.18;5.88;;;;;;;17.42;72.99;101580.84;6247566;22;20455;-71
2022/10/17 00:31:25;;;;;;;8.75;6.07;;;;;;;17.78;71.76;101577.19;6245614;22;20074;-72
2022/10/17 00:33:51;;;;;;;8.52;5.93;;;;;;;17.73;71.42;101580.75;6242439;22;20391;-71
2022/10/17 00:36:23;;;;;;;8.57;6.28;;;;;;;17.56;72.43;101579.91;6246890;22;20063;-71
2022/10/17 00:38:51;;;;;;;9.80;6.40;;;;;;;17.56;72.64;101577.28;6246272;22;20870;-72
2022/10/17 00:41:19;;;;;;;8.90;6.38;;;;;;;17.73;71.77;101583.38;6243320;22;20003;-72
2022/10/17 00:43:52;;;;;;;8.32;6.35;;;;;;;17.65;71.93;101587.81;6245673;22;20008;-71
2022/10/17 00:46:18;;;;;;;10.13;6.90;;;;;;;17.64;72.21;101583.41;6242804;22;20007;-72
2022/10/17 00:48:44;;;;;;;10.10;6.43;;;;;;;17.53;72.89;101583.44;6246286;22;20041;-71
2022/10/17 00:51:09;;;;;;;9.07;6.57;;;;;;;17.63;72.43;101586.91;6246123;22;20324;-71
2022/10/17 00:53:36;;;;;;;10.13;6.70;;;;;;;17.54;72.95;101585.19;6248905;22;20070;-72
2022/10/17 00:56:02;;;;;;;11.48;6.57;;;;;;;17.71;72.27;101583.38;6246993;22;20008;-72
2022/10/17 00:58:27;;;;;;;14.35;6.90;;;;;;;17.36;73.35;101585.25;6239379;22;20849;-72
2022/10/17 01:00:52;;;;;;;10.48;6.88;;;;;;;17.60;72.68;101579.00;6217820;22;20499;-71
2022/10/17 01:03:18;;;;;;;11.55;6.88;;;;;;;17.49;72.66;101579.06;6243957;22;20046;-72
2022/10/17 01:05:43;;;;;;;9.30;6.78;;;;;;;17.75;71.82;101576.31;6248585;22;20023;-72
2022/10/17 01:08:10;;;;;;;9.77;7.07;;;;;;;17.73;72.24;101576.34;6244271;22;20553;-72
2022/10/17 01:11:06;;;;;;;9.82;6.88;;;;;;;17.32;73.71;101576.47;6236088;22;20012;-72
2022/10/17 01:13:50;;;;;;;11.35;7.18;;;;;;;17.57;72.96;101573.72;6247460;22;20663;-72
2022/10/17 01:16:16;;;;;;;;;;;;;;;17.73;72.74;101572.84;6244158;22;20425;-71
2022/10/17 01:18:50;;;;;;;9.43;6.63;;;;;;;17.60;72.40;101576.38;6245856;22;19976;-72
2022/10/17 01:21:44;;;;;;;11.30;7.22;;;;;;;17.49;72.88;101567.63;6240844;22;20012;-72
2022/10/17 01:24:22;;;;;;;11.85;7.00;;;;;;;17.64;72.94;101557.03;6225705;22;20008;-72
2022/10/17 01:27:24;;;;;;;10.35;7.07;;;;;;;17.52;73.11;101543.88;6240777;22;20346;-72
2022/10/17 01:30:22;;;;;;;9.35;6.60;;;;;;;17.68;72.46;101542.97;6246451;22;20007;-72
2022/10/17 01:32:56;;;;;;;11.18;7.30;;;;;;;17.60;72.68;101532.47;6197855;22;20038;-72
2022/10/17 01:35:40;;;;;;;;;;;;;;;17.38;73.92;101541.31;6249557;22;20476;-71
2022/10/17 01:38:13;;;;;;;9.15;6.97;;;;;;;17.29;74.53;101530.81;6249406;22;19911;-73
2022/10/17 01:40:44;;;;;;;11.38;7.45;;;;;;;17.46;73.49;101528.97;6240196;22;20462;-72
2022/10/17 01:43:28;;;;;;;11.10;7.13;;;;;;;17.26;74.91;101525.56;6251116;22;20004;-72
2022/10/17 01:46:12;;;;;;;10.00;7.13;;;;;;;17.53;74.04;101521.91;6243339;22;20356;-72
2022/10/17 01:48:42;;;;;;;9.80;6.95;;;;;;;17.41;74.23;101525.47;6248684;22;20382;-72
2022/10/17 01:51:24;;;;;;;9.57;7.05;;;;;;;17.32;74.61;101526.38;6216319;22;20042;-72
2022/10/17 01:53:57;;;;;;;12.68;7.30;;;;;;;17.70;72.72;101538.53;6252536;22;20004;-71
2022/10/17 01:56:27;;;;;;;10.57;7.47;;;;;;;17.51;72.69;101521.91;6240870;22;20008;-71
2022/10/17 01:58:59;;;;;;;10.48;7.28;;;;;;;17.49;73.66;101518.44;6246532;22;20007;-72
2022/10/17 02:01:27;;;;;;;11.80;7.70;;;;;;;17.40;73.73;101518.44;6245551;22;20026;-72
2022/10/17 02:03:53;;;;;;;8.90;7.25;;;;;;;17.71;72.79;101525.38;6244806;22;20073;-72
2022/10/17 02:06:18;;;;;;;12.23;7.80;;;;;;;17.28;74.45;101523.78;6247059;22;20029;-71
2022/10/17 02:08:46;;;;;;;12.45;7.63;;;;;;;17.43;73.89;101514.06;6238087;22;20883;-72
2022/10/17 02:11:16;;;;;;;11.77;7.85;;;;;;;17.52;73.50;101510.47;6246175;22;20011;-71
2022/10/17 02:14:03;;;;;;;12.60;7.60;;;;;;;17.53;73.40;101512.25;6250954;22;20008;-72
2022/10/17 02:16:38;;;;;;;11.18;7.40;;;;;;;17.40;73.86;101500.88;6243474;22;20012;-72
2022/10/17 02:19:30;;;;;;;10.77;7.43;;;;;;;17.24;74.91;101507.09;6251614;22;20015;-72
2022/10/17 02:22:10;;;;;;;10.57;7.50;;;;;;;17.35;74.23;101499.16;6195588;22;20012;-72
2022/10/17 02:24:50;;;;;;;13.15;7.63;;;;;;;17.59;73.88;101501.66;6250259;22;20031;-71
2022/10/17 02:27:34;;;;;;;12.52;8.45;;;;;;;17.28;74.73;101486.88;6246178;22;20043;-72
2022/10/17 02:30:34;;;;;;;15.07;8.20;;;;;;;17.28;74.78;101486.88;6246452;22;20046;-73
2022/10/17 02:33:11;;;;;;;11.85;7.90;;;;;;;17.65;73.79;101485.84;6240579;22;20015;-71
2022/10/17 02:35:42;;;;;;;11.65;7.40;;;;;;;17.55;73.57;101480.59;6250853;22;20373;-72
2022/10/17 02:38:09;;;;;;;10.95;7.18;;;;;;;17.81;73.05;101489.25;6245372;22;20004;-72
2022/10/17 02:40:37;;;;;;;10.32;7.53;;;;;;;17.71;72.99;101493.72;6239485;22;20430;-72
2022/10/17 02:43:03;;;;;;;11.18;7.90;;;;;;;17.55;73.72;101489.41;6223099;22;20091;-71
2022/10/17 02:45:34;;;;;;;11.65;7.78;;;;;;;17.87;72.69;101502.41;6244977;22;20012;-72
2022/10/17 02:48:08;;;;;;;10.80;7.68;;;;;;;17.73;74.05;101507.78;6248872;22;20062;-72
2022/10/17 02:50:51;;;;;;;11.75;7.88;;;;;;;17.85;73.39;101514.75;6239309;22;20515;-72
2022/10/17 02:53:27;;;;;;;13.50;7.55;;;;;;;17.86;73.45;101513.84;6249026;22;20057;-72
2022/10/17 02:56:01;;;;;;;12.10;7.07;;;;;;;18.04;72.75;101523.41;6246985;22;20012;-72
2022/10/17 02:58:30;;;;;;;10.45;7.15;;;;;;;18.08;72.90;101527.75;6239319;22;20364;-72
2022/10/17 03:00:57;;;;;;;13.20;7.20;;;;;;;18.10;73.02;101540.06;6244379;22;20100;-71
2022/10/17 03:03:29;;;;;;;12.05;7.20;;;;;;;18.22;72.51;101537.34;6242159;22;20211;-72
2022/10/17 03:05:55;;;;;;;10.55;7.10;;;;;;;18.21;72.53;101530.31;6251826;22;20043;-71
2022/10/17 03:08:21;;;;;;;10.45;7.05;;;;;;;18.19;72.78;101529.44;6244030;22;20010;-71
2022/10/17 03:10:46;;;;;;;12.18;7.60;;;;;;;18.26;72.73;101519.72;6241598;22;20239;-72
2022/10/17 03:13:12;;;;;;;10.90;6.85;;;;;;;18.34;72.50;101532.84;6247266;22;20008;-72
2022/10/17 03:15:38;;;;;;;9.95;7.35;;;;;;;18.32;72.43;101524.06;6242487;22;20420;-72
2022/10/17 03:18:03;;;;;;;10.18;6.75;;;;;;;18.38;72.40;101519.63;6249635;22;20004;-73
2022/10/17 03:20:29;;;;;;;11.77;7.18;;;;;;;18.32;72.70;101517.03;6238132;22;20069;-72
2022/10/17 03:22:54;;;;;;;11.05;6.82;;;;;;;18.37;72.88;101520.50;6246843;22;20402;-72
2022/10/17 03:25:20;;;;;;;11.63;7.03;;;;;;;18.32;73.31;101524.94;6247186;22;20158;-73
2022/10/17 03:27:45;;;;;;;11.35;6.93;;;;;;;18.48;72.74;101525.72;6243505;22;20023;-72
2022/10/17 03:30:11;;;;;;;10.23;6.80;;;;;;;18.49;72.51;101523.03;6247352;22;20112;-71
2022/10/17 03:32:36;;;;;;;11.38;6.53;;;;;;;18.46;72.56;101514.28;6241959;22;20010;-71
2022/10/17 03:35:03;;;;;;;9.27;6.53;;;;;;;18.53;72.33;101522.13;6248390;22;20004;-72
2022/10/17 03:37:28;;;;;;;9.50;6.25;;;;;;;18.43;72.36;101514.28;6247789;22;20016;-72
2022/10/17 03:39:53;;;;;;;10.80;6.53;;;;;;;18.46;72.29;101523.06;6237158;22;20011;-71
2022/10/17 03:42:19;;;;;;;11.32;6.82;;;;;;;18.40;72.41;101524.88;6243696;22;20052;-72
2022/10/17 03:44:45;;;;;;;8.85;5.93;;;;;;;18.44;72.27;101523.97;6239524;22;20507;-71
2022/10/17 03:47:10;;;;;;;9.82;6.63;;;;;;;18.33;72.68;101517.91;6245684;22;20004;-73
2022/10/17 03:49:35;;;;;;;10.07;6.30;;;;;;;18.41;72.70;101526.66;6250047;22;20011;-72
2022/10/17 03:52:01;;;;;;;9.88;6.30;;;;;;;18.42;72.73;101523.13;6244449;22;20004;-72
2022/10/17 03:54:27;;;;;;;11.20;6.65;;;;;;;18.45;72.95;101523.06;6244322;22;20010;-71
2022/10/17 03:56:52;;;;;;;9.85;6.60;;;;;;;18.45;72.82;101531.00;6241544;22;20022;-72
2022/10/17 03:59:17;;;;;;;7.97;6.25;;;;;;;18.51;72.66;101525.66;6247619;22;20008;-72
2022/10/17 04:01:43;;;;;;;9.82;6.75;;;;;;;18.45;73.36;101531.88;6245454;22;20052;-71
2022/10/17 04:04:08;;;;;;;11.20;6.10;;;;;;;18.47;73.70;101535.41;6239344;22;20090;-71
2022/10/17 04:06:34;;;;;;;9.98;6.20;;;;;;;18.57;73.35;101538.84;6243869;22;20016;-72
2022/10/17 04:08:59;;;;;;;9.02;6.20;;;;;;;18.52;73.51;101530.94;6243297;22;20186;-72
2022/10/17 04:11:25;;;;;;;9.85;6.57;;;;;;;18.55;73.89;101537.97;6245400;22;20379;-72
2022/10/17 04:13:55;;;;;;;8.90;6.35;;;;;;;18.66;73.57;101541.41;6220991;22;20004;-72
2022/10/17 04:16:21;;;;;;;10.35;6.38;;;;;;;18.69;73.61;101538.75;6214568;22;20436;-71
2022/10/17 04:18:53;;;;;;;8.77;6.30;;;;;;;18.76;73.59;101543.06;6245924;22;20083;-73
2022/10/17 04:21:18;;;;;;;9.23;6.30;;;;;;;18.72;74.02;101530.81;6241320;22;20003;-74
2022/10/17 04:23:44;;;;;;;9.50;6.30;;;;;;;18.83;73.57;101531.56;6220019;22;20435;-72
2022/10/17 04:26:09;;;;;;;11.02;6.38;;;;;;;18.84;73.95;101537.72;6251884;22;20095;-72
2022/10/17 04:28:35;;;;;;;10.20;6.50;;;;;;;18.88;73.91;101542.94;6240617;22;20034;-72
2022/10/17 04:31:04;;;;;;;10.60;6.28;;;;;;;18.91;73.85;101544.66;6249011;22;19999;-72
2022/10/17 04:33:31;;;;;;;10.95;6.57;;;;;;;18.88;74.50;101550.00;6242878;22;20018;-71
2022/10/17 04:36:00;;;;;;;10.07;6.50;;;;;;;18.86;74.80;101552.66;6222049;22;20007;-71
2022/10/17 04:38:26;;;;;;;9.68;6.25;;;;;;;19.02;74.40;101550.75;6239704;22;20007;-72
2022/10/17 04:40:52;;;;;;;10.82;6.68;;;;;;;18.96;74.64;101556.97;6245959;22;20377;-71
2022/10/17 04:43:17;;;;;;;9.80;6.25;;;;;;;19.11;74.57;101549.75;6249889;22;20007;-73
2022/10/17 04:45:42;;;;;;;9.35;5.93;;;;;;;19.22;73.77;101547.84;6243415;22;20015;-72
2022/10/17 04:48:08;;;;;;;11.52;6.15;;;;;;;19.26;73.46;101550.47;6247921;22;20003;-72
2022/10/17 04:50:33;;;;;;;8.98;5.65;;;;;;;19.20;73.36;101547.91;6236772;22;20392;-71
2022/10/17 04:52:58;;;;;;;9.20;5.78;;;;;;;19.14;73.77;101555.03;6246836;22;20011;-72
2022/10/17 04:55:24;;;;;;;9.02;6.07;;;;;;;19.11;73.57;101555.91;6245191;22;20714;-72
2022/10/17 04:57:49;;;;;;;8.95;5.63;;;;;;;19.10;73.91;101553.28;6242053;22;20016;-72
2022/10/17 05:00:15;;;;;;;8.15;5.78;;;;;;;19.23;73.38;101565.47;6244824;22;20004;-71
2022/10/17 05:02:40;;;;;;;9.48;5.70;;;;;;;19.22;73.11;101550.50;6238505;22;22683;-71
2022/10/17 05:05:06;;;;;;;8.57;5.53;;;;;;;19.24;72.97;101551.38;6247339;22;20016;-72
2022/10/17 05:07:31;;;;;;;9.98;6.00;;;;;;;19.26;73.14;101550.47;6247213;22;20507;-71
2022/10/17 05:09:57;;;;;;;10.68;5.95;;;;;;;19.22;73.36;101553.16;6243190;22;20007;-73
2022/10/17 05:12:23;;;;;;;12.07;6.35;;;;;;;19.11;73.70;101563.84;6250189;22;20004;-72
2022/10/17 05:14:49;;;;;;;8.00;5.70;;;;;;;19.21;73.88;101573.41;6244410;22;20332;-73
2022/10/17 05:17:14;;;;;;;8.93;5.95;;;;;;;19.31;73.44;101577.72;6250332;22;20093;-73
2022/10/17 05:19:39;;;;;;;8.07;5.90;;;;;;;19.34;73.42;101587.38;6247099;22;20347;-74
2022/10/17 05:22:05;;;;;;;10.70;5.70;;;;;;;19.38;73.15;101590.00;6243196;22;20431;-72
2022/10/17 05:24:31;;;;;;;7.40;5.80;;;;;;;19.40;73.43;101582.03;6244714;22;19999;-72
2022/10/17 05:26:56;;;;;;;9.35;5.85;;;;;;;19.44;73.32;101576.69;6245265;22;20018;-72
2022/10/17 05:29:21;;;;;;;9.20;5.63;;;;;;;19.44;73.38;101578.47;6250205;22;20058;-72
2022/10/17 05:31:47;;;;;;;9.00;5.97;;;;;;;19.43;73.33;101574.94;6250114;22;20004;-72
2022/10/17 05:34:12;;;;;;;10.63;5.80;;;;;;;19.34;73.12;101566.22;6244143;22;20035;-73
2022/10/17 05:36:37;;;;;;;13.25;5.90;;;;;;;19.40;72.94;101576.72;6244778;22;20025;-72
2022/10/17 05:39:03;;;;;;;9.05;5.70;;;;;;;19.35;72.81;101581.19;6245612;22;20069;-71
2022/10/17 05:41:28;;;;;;;8.18;5.63;;;;;;;19.43;72.81;101582.00;6247390;22;20010;-72
2022/10/17 05:43:54;;;;;;;10.70;5.82;;;;;;;19.31;73.30;101583.03;6248868;22;20003;-72
2022/10/17 05:46:19;;;;;;;9.35;5.88;;;;;;;19.36;73.19;101580.31;6240864;22;20045;-70
2022/10/17 05:48:45;;;;;;;11.20;5.50;;;;;;;19.44;72.62;101586.41;6249157;22;20015;-71
2022/10/17 05:51:10;;;;;;;9.75;6.10;;;;;;;19.42;72.25;101575.84;6238990;22;20014;-71
2022/10/17 05:53:38;;;;;;;9.88;5.88;;;;;;;19.24;73.23;101575.16;6249485;22;20004;-72
2022/10/17 05:56:06;;;;;;;7.88;5.47;;;;;;;19.37;72.43;101579.44;6248958;22;20435;-72
2022/10/17 05:58:33;;;;;;;9.50;5.50;;;;;;;19.37;72.69;101582.06;6240927;22;20011;-72
2022/10/17 06:01:01;;;;;;;11.63;6.32;;;;;;;19.29;72.85;101582.16;6220386;22;20012;-72
2022/10/17 06:03:26;;;;;;;12.63;5.30;;;;;;;19.31;72.76;101583.03;6243340;22;20378;-71
2022/10/17 06:05:52;;;;;;;10.38;6.10;;;;;;;19.31;72.92;101593.59;6250013;22;20416;-72
2022/10/17 06:08:18;;;;;;;9.52;5.80;;;;;;;19.38;72.95;101604.97;6246068;22;20011;-73
2022/10/17 06:10:49;;;;;;;8.38;5.55;;;;;;;19.40;72.73;101596.13;6242709;22;20019;-72
2022/10/17 06:13:17;;;;;;;9.88;6.30;;;;;;;19.20;73.42;101608.69;6247920;22;20308;-73
2022/10/17 06:15:43;;;;;;;9.68;5.63;;;;;;;19.37;73.34;101605.88;6245813;22;20018;-72
2022/10/17 06:18:10;;;;;;;10.60;6.10;;;;;;;19.32;73.13;101603.28;6247720;22;20011;-71
2022/10/17 06:20:35;;;;;;;10.02;6.20;;;;;;;19.29;73.41;101631.50;6237221;22;20035;-72
2022/10/17 06:23:01;;;;;;;9.93;5.70;;;;;;;19.41;73.15;101624.31;6248791;22;20043;-73
2022/10/17 06:25:28;;;;;;;13.10;5.78;;;;;;;19.37;73.29;101627.03;6249293;22;20107;-72
2022/10/17 06:27:53;;;;;;;11.75;6.10;;;;;;;19.44;73.22;101619.00;6243336;22;20003;-72
2022/10/17 06:30:18;;;;;;;8.27;5.53;;;;;;;19.46;73.17;101621.66;6246135;22;20008;-72
2022/10/17 06:32:44;;;;;;;11.20;5.88;;;;;;;19.43;72.84;101621.66;6217314;22;20038;-73
2022/10/17 06:35:09;;;;;;;7.38;5.40;;;;;;;19.50;73.06;101619.88;6250160;22;20008;-72
2022/10/17 06:37:36;;;;;;;8.82;5.78;;;;;;;19.60;72.51;101621.50;6246587;22;20360;-71
2022/10/17 06:40:02;;;;;;;10.43;5.80;;;;;;;19.57;72.71;101634.78;6241362;22;20012;-71
2022/10/17 06:42:28;;;;;;;9.40;5.60;;;;;;;19.56;73.06;101627.72;6245477;22;20010;-71
2022/10/17 06:44:53;;;;;;;11.52;6.07;;;;;;;19.60;73.21;101635.59;6242827;22;20106;-72
2022/10/17 06:47:18;;;;;;;9.40;6.13;;;;;;;19.53;73.40;101622.47;6248773;22;20007;-72
2022/10/17 06:49:44;;;;;;;8.32;5.88;;;;;;;19.66;72.84;101621.41;6248750;22;20008;-72
2022/10/17 06:52:09;;;;;;;8.88;5.70;;;;;;;19.73;72.66;101626.63;6242395;22;20038;-72
2022/10/17 06:54:35;;;;;;;8.05;4.88;;;;;;;19.76;72.34;101647.75;6243308;22;20355;-72
2022/10/17 06:57:00;;;;;;;8.52;5.30;;;;;;;19.76;72.69;101644.25;6243926;22;20042;-72
2022/10/17 06:59:25;;;;;;;9.57;5.50;;;;;;;19.83;72.38;101659.13;6237844;22;20345;-71
2022/10/17 07:01:50;;;;;;;10.13;5.63;;;;;;;19.84;72.27;101655.59;6245840;22;20023;-72
2022/10/17 07:04:16;;;;;;;7.88;5.50;;;;;;;19.83;72.22;101670.59;6244361;22;20007;-72
2022/10/17 07:06:41;;;;;;;11.95;6.13;;;;;;;19.83;72.38;101685.59;6245407;22;20023;-73
2022/10/17 07:09:07;;;;;;;10.27;5.85;;;;;;;19.79;72.47;101703.28;6213189;22;20081;-72
2022/10/17 07:11:36;;;;;;;8.98;5.47;;;;;;;19.81;72.57;101711.22;6239501;22;20004;-72
2022/10/17 07:14:02;;;;;;;9.95;5.80;;;;;;;19.79;72.89;101720.94;6248697;22;20343;-73
2022/10/17 07:16:28;;;;;;;9.23;5.65;;;;;;;19.84;72.64;101714.69;6211133;22;20007;-73
2022/10/17 07:18:53;;;;;;;7.68;5.90;;;;;;;19.85;72.68;101732.31;6244363;22;20011;-71
2022/10/17 07:21:19;;;;;;;11.38;6.03;;;;;;;19.88;72.37;101735.84;6243662;22;20094;-72
2022/10/17 07:23:45;;;;;;;8.50;5.60;;;;;;;19.93;72.52;101745.47;6249809;22;20022;-72
2022/10/17 07:26:12;;;;;;;9.75;5.78;;;;;;;19.97;72.19;101760.41;6247204;22;20549;-72
2022/10/17 07:28:39;;;;;;;9.55;5.75;;;;;;;20.01;72.10;101759.47;6238430;22;20065;-71
2022/10/17 07:31:07;;;;;;;11.10;5.90;;;;;;;19.88;72.62;101780.81;6245250;22;20104;-72
2022/10/17 07:33:33;;;;;;;9.38;5.75;;;;;;;19.94;72.72;101797.53;6243336;22;20022;-74
2022/10/17 07:36:00;;;;;;;11.70;5.90;;;;;;;20.03;72.45;101810.66;6247938;22;20014;-72
2022/10/17 07:38:27;;;;;;;8.55;5.85;;;;;;;19.95;73.12;101812.47;6214846;22;20008;-71
2022/10/17 07:40:57;;;;;;;8.27;5.53;;;;;;;20.07;72.64;101816.78;6246338;22;20014;-72
2022/10/17 07:43:24;;;;;;;9.02;5.22;;;;;;;20.10;72.55;101804.41;6248701;22;20092;-72
2022/10/17 07:45:50;;;;;;;11.55;5.78;;;;;;;19.95;73.82;101815.13;6240779;22;20035;-72
2022/10/17 07:48:16;;;;;;;12.27;6.00;;;;;;;19.64;75.84;101826.94;6221052;22;20509;-72
2022/10/17 07:50:42;;;;;;;9.07;5.72;;;;;;;19.94;75.06;101836.34;6234037;22;20016;-72
2022/10/17 07:53:07;;;;;;;9.38;5.50;;;;;;;20.02;74.71;101851.25;6249772;22;20348;-72
2022/10/17 07:55:33;;;;;;;10.23;5.63;;;;;;;20.08;74.69;101845.00;6248109;22;20000;-73
2022/10/17 07:57:59;;;;;;;11.60;5.75;;;;;;;20.10;74.99;101852.03;6246294;22;20019;-72
2022/10/17 08:00:25;;;;;;;9.25;5.57;;;;;;;20.26;74.34;101858.91;6239224;22;20423;-72
2022/10/17 08:02:50;;;;;;;9.90;5.97;;;;;;;19.95;76.00;101853.94;6241416;22;20012;-72
2022/10/17 08:05:16;;;;;;;9.40;6.10;;;;;;;20.03;75.58;101849.47;6245859;22;20016;-74
2022/10/17 08:07:42;;;;;;;11.85;6.00;;;;;;;20.04;75.71;101852.09;6244543;22;20008;-74
2022/10/17 08:10:09;;;;;;;9.48;5.97;;;;;;;20.20;74.85;101861.63;6233765;22;20098;-71
2022/10/17 08:12:34;;;;;;;9.98;5.80;;;;;;;20.15;75.36;101862.59;6237037;22;20003;-71
2022/10/17 08:15:00;;;;;;;9.32;5.78;;;;;;;20.20;74.99;101864.28;6236147;22;20023;-72
2022/10/17 08:17:26;;;;;;;12.63;6.18;;;;;;;20.11;75.39;101863.53;6247180;22;20018;-71
2022/10/17 08:19:51;;;;;;;13.90;6.43;;;;;;;19.97;75.86;101852.19;6246896;22;20079;-71
2022/10/17 08:22:17;;;;;;;11.43;6.10;;;;;;;20.21;74.92;101838.69;6240374;22;20011;-72
2022/10/17 08:24:43;;;;;;;10.45;5.97;;;;;;;20.11;75.27;101837.91;6242936;22;20348;-70
2022/10/17 08:27:11;;;;;;;11.73;6.05;;;;;;;20.01;75.37;101824.78;6242110;22;20034;-72
2022/10/17 08:29:38;;;;;;;9.73;5.90;;;;;;;20.14;75.12;101821.09;6245426;22;20024;-72
2022/10/17 08:32:03;;;;;;;11.85;6.13;;;;;;;20.13;75.09;101837.88;6246158;22;20079;-71
2022/10/17 08:34:28;;;;;;;9.57;5.75;;;;;;;20.17;74.92;101836.97;6234239;22;20436;-70
2022/10/17 08:36:54;;;;;;;8.38;5.20;;;;;;;20.21;74.38;101831.63;6244160;22;20343;-72
2022/10/17 08:39:19;;;;;;;8.20;5.60;;;;;;;20.19;74.82;101816.63;6239667;22;20054;-72
2022/10/17 08:42:11;;;;;;;11.20;5.90;;;;;;;20.20;74.45;101798.09;6244455;22;20408;-72
2022/10/17 08:45:24;;;;;;;10.77;5.97;;;;;;;20.25;74.68;101805.97;6237376;22;20514;-70
2022/10/17 08:47:59;;;;;;;9.02;5.60;;;;;;;20.25;74.57;101806.84;6192939;22;20008;-71
2022/10/17 08:50:47;;;;;;;8.82;5.90;;;;;;;20.30;74.49;101819.19;6236893;22;20008;-71
2022/10/17 08:53:45;;;;;;;10.27;5.93;;;;;;;20.32;74.48;101838.56;6244927;22;20030;-71
2022/10/17 08:56:25;;;;;;;9.90;5.90;;;;;;;20.12;75.53;101836.16;6243671;22;20007;-71
2022/10/17 08:58:50;;;;;;;12.93;6.13;;;;;;;20.31;75.04;101840.31;6246540;22;20014;-70
2022/10/17 09:01:35;;;;;;;10.30;6.13;;;;;;;20.37;74.99;101852.69;6245534;22;19999;-70
2022/10/17 09:04:22;;;;;;;13.55;6.50;;;;;;;20.31;75.21;101858.88;6240409;22;20011;-72
2022/10/17 09:07:34;;;;;;;11.95;6.13;;;;;;;20.41;74.80;101868.53;6244113;22;20050;-71
2022/10/17 09:10:17;;;;;;;11.25;6.07;;;;;;;20.53;74.61;101870.13;6167623;22;20018;-72
2022/10/17 09:12:56;;;;;;;8.77;5.72;;;;;;;20.52;74.51;101866.63;6243030;22;20462;-72
2022/10/17 09:15:37;;;;;;;9.70;5.95;;;;;;;20.61;74.41;101857.69;6239706;22;20091;-72
2022/10/17 09:18:09;;;;;;;9.18;5.95;;;;;;;20.63;74.62;101843.50;6246333;22;20073;-70
2022/10/17 09:20:46;;;;;;;11.05;6.43;;;;;;;20.67;75.04;101849.66;6235603;22;20007;-71
2022/10/17 09:23:17;;;;;;;11.45;5.85;;;;;;;20.71;74.75;101837.25;6245639;22;20028;-71
2022/10/17 09:25:46;;;;;;;10.63;6.15;;;;;;;20.77;74.27;101842.47;6245230;22;20050;-71
2022/10/17 09:28:28;;;;;;;11.23;6.20;;;;;;;20.82;74.71;101848.56;6239859;22;20123;-71
2022/10/17 09:31:03;;;;;;;10.70;6.10;;;;;;;20.60;74.79;101864.75;6246499;22;20011;-71
2022/10/17 09:33:36;;;;;;;9.27;5.80;;;;;;;20.74;74.29;101882.25;6238210;22;20394;-71
2022/10/17 09:36:08;;;;;;;10.48;6.00;;;;;;;20.65;74.40;101888.53;6244431;22;20359;-72
2022/10/17 09:38:44;;;;;;;9.63;5.95;;;;;;;20.50;74.45;101902.81;6239229;22;20004;-71
2022/10/17 09:41:17;;;;;;;10.00;6.40;;;;;;;20.53;74.59;101910.75;6217857;22;20193;-71
2022/10/17 09:43:44;;;;;;;10.48;6.25;;;;;;;20.37;75.08;101922.41;6246546;22;20004;-71
2022/10/17 09:46:36;;;;;;;11.23;5.97;;;;;;;20.50;74.72;101929.31;6241516;22;20011;-72
2022/10/17 09:49:08;;;;;;;10.48;6.40;;;;;;;20.44;75.22;101924.09;6243306;22;20061;-72
2022/10/17 09:51:36;;;;;;;10.90;5.95;;;;;;;20.53;74.61;101929.31;6241060;22;20008;-72
2022/10/17 09:54:09;;;;;;;13.05;6.55;;;;;;;20.42;75.41;101936.50;6247837;22;20005;-72
2022/10/17 09:57:02;;;;;;;14.32;6.50;;;;;;;20.22;75.83;101941.94;6239683;22;20408;-70
2022/10/17 09:59:37;;;;;;;12.77;5.57;;;;;;;20.24;75.89;101941.94;6220400;22;20008;-72
2022/10/17 10:02:16;;;;;;;9.60;5.88;;;;;;;20.23;75.61;101943.72;6248095;22;20105;-72
2022/10/17 10:05:05;;;;;;;8.45;5.35;;;;;;;20.48;75.14;101947.03;6241415;22;20012;-70
2022/10/17 10:07:35;;;;;;;8.93;4.82;;;;;;;20.46;74.69;101948.81;6246630;22;20436;-71
2022/10/17 10:10:02;;;;;;;8.38;4.53;;;;;;;20.39;74.30;101963.00;6240206;22;20276;-71
2022/10/17 10:12:31;;;;;;;8.52;4.60;;;;;;;20.21;74.81;101968.44;6235011;22;20015;-72
2022/10/17 10:14:57;;;;;;;8.13;4.45;;;;;;;20.22;75.08;101963.13;6242979;22;20433;-72
2022/10/17 10:17:40;;;;;;;7.63;4.55;;;;;;;20.29;75.08;101977.19;6245609;22;20486;-72
2022/10/17 10:20:39;;;;;;;8.50;5.03;;;;;;;20.38;74.94;101973.59;6245884;22;20007;-71
2022/10/17 10:23:10;;;;;;;8.95;4.80;;;;;;;20.39;74.84;101992.13;6197242;22;20438;-72
2022/10/17 10:25:35;;;;;;;9.93;5.10;;;;;;;20.17;75.60;101983.47;6244101;22;20010;-71
2022/10/17 10:28:08;;;;;;;12.45;5.03;;;;;;;20.16;75.57;101994.97;6242501;22;20011;-72
2022/10/17 10:30:33;;;;;;;6.95;4.63;;;;;;;20.24;75.41;101993.13;6242685;22;20018;-70
2022/10/17 10:32:59;;;;;;;8.40;4.97;;;;;;;20.29;75.11;102001.03;6215667;22;20008;-72
2022/10/17 10:35:31;;;;;;;6.47;4.35;;;;;;;20.41;75.01;102006.25;6248042;22;20365;-71
2022/10/17 10:37:59;;;;;;;8.52;4.75;;;;;;;20.32;75.51;101998.38;6247190;22;20012;-71
2022/10/17 10:40:32;;;;;;;6.38;4.25;;;;;;;20.38;75.27;102008.91;6238313;22;20519;-72
2022/10/17 10:42:59;;;;;;;8.90;4.30;;;;;;;20.32;74.53;102021.28;6247805;22;20006;-72
2022/10/17 10:45:40;;;;;;;9.15;4.18;;;;;;;20.09;75.48;102018.84;6242600;22;20042;-72
2022/10/17 10:48:29;;;;;;;8.93;4.00;;;;;;;20.31;74.60;102012.47;6248538;22;20207;-72
2022/10/17 10:51:03;;;;;;;7.07;3.60;;;;;;;20.20;74.77;102023.16;6212367;22;20040;-71
2022/10/17 10:53:53;;;;;;;7.40;3.60;;;;;;;20.15;74.78;102021.44;6247805;22;20362;-71
2022/10/17 10:56:53;;;;;;;5.50;3.00;;;;;;;20.23;74.23;102027.56;6248607;22;20010;-71
2022/10/17 10:59:35;;;;;;;5.43;3.08;;;;;;;20.30;73.70;102033.69;6240476;22;20256;-71
2022/10/17 11:02:14;;;;;;;5.50;3.10;;;;;;;20.24;73.44;102030.22;6247557;22;20323;-71
2022/10/17 11:04:46;;;;;;;5.55;3.10;;;;;;;20.19;73.38;102031.09;6211136;22;20450;-72
2022/10/17 11:07:21;;;;;;;6.47;3.10;;;;;;;20.16;73.51;102023.19;6245025;22;20010;-70
2022/10/17 11:10:09;;;;;;;4.32;2.80;;;;;;;20.13;73.28;102025.84;6237893;22;20357;-72
2022/10/17 11:12:44;;;;;;;3.85;2.80;;;;;;;20.21;73.02;102019.63;6241403;22;20363;-71
2022/10/17 11:15:26;;;;;;;5.32;2.60;;;;;;;20.21;73.40;102016.97;6243896;22;19999;-71
2022/10/17 11:17:58;;;;;;;4.35;2.60;;;;;;;20.22;72.96;102028.44;6246338;22;20011;-71
2022/10/17 11:20:30;;;;;;;4.80;2.30;;;;;;;19.98;72.99;102044.50;6238628;22;20018;-72
2022/10/17 11:23:41;;;;;;;3.60;2.35;;;;;;;19.88;72.79;102051.66;6217281;22;20095;-71
2022/10/17 11:26:15;;;;;;;4.82;2.10;;;;;;;20.24;73.08;102061.09;6244395;22;20011;-71
2022/10/17 11:28:40;;;;;;;3.00;1.98;;;;;;;20.50;71.88;102068.84;6238024;22;20189;-71
2022/10/17 11:31:11;;;;;;;5.35;1.70;;;;;;;20.72;71.68;102064.25;6248913;22;20169;-71
2022/10/17 11:33:46;;;;;;;3.25;1.98;;;;;;;20.60;70.58;102074.06;6240555;22;20657;-71
2022/10/17 11:36:13;;;;;;;3.22;1.92;;;;;;;20.69;70.23;102082.81;6245364;22;21890;-71
2022/10/17 11:38:54;;;;;;;3.22;1.83;;;;;;;20.69;69.94;102093.41;6235342;22;20518;-71